Mendocino — WDB9115 — position and weather

sailwx.info

Track history (hours):
 
Tides and Currents Weather Stations Pressure Air Temp Water Temp Dewpoint Dewpoint Depression Visibility Wind Speed Wind Dir Waves Ship Positions

Mendocino

Owner: Golden Gate Bridge Hwy & Transp Dist., Larkspur, CA. More information available from US FCC via Universal Licensing System and Coast Guard Vessel Documentation Center.

Last reported at 2017-Dec-11 17:00 UTC. Time now 2017-Dec-12 18:11 UTC.
Position N 37°55' W 122°27'.

Length 48 m.

Type: Ship. MMSI: 366970020.

Date/timePositionNaut miles runAvg speedWind from/ knotsBaromVisibWave heightAir tempDewpointWater temp
2017-Dec-11 17:00N 37°55' W 122°27'3 5.5
2017-Dec-11 16:30N 37°56' W 122°30'1019.7
2017-Dec-11 16:00N 37°48' W 122°24'1020.9
2017-Dec-11 15:31N 37°57' W 122°30'0 0.1
2017-Dec-11 15:00N 37°57' W 122°31'  
2017-Dec-09 02:06N 37°57' W 122°30'0 3.0
2017-Dec-09 02:00N 37°57' W 122°30'1020.5
2017-Dec-09 01:30N 37°48' W 122°24'510.1
2017-Dec-09 01:01N 37°53' W 122°25'611.3
2017-Dec-09 00:30N 37°57' W 122°30'1021.0
2017-Dec-09 00:00N 37°48' W 122°24'815.9
2017-Dec-08 23:30N 37°55' W 122°28'3 5.5
2017-Dec-08 23:00N 37°57' W 122°30'0 0.0
2017-Dec-08 22:31N 37°57' W 122°30'0 0.0
2017-Dec-08 22:01N 37°57' W 122°30'1020.4
2017-Dec-08 21:30N 37°48' W 122°23'611.3
2017-Dec-08 21:01N 37°53' W 122°26'5 9.3
2017-Dec-08 20:30N 37°57' W 122°30'1020.8
2017-Dec-08 20:00N 37°48' W 122°23'4 8.5
2017-Dec-08 19:31N 37°52' W 122°25'612.6
2017-Dec-08 19:00N 37°57' W 122°30'3 6.5
2017-Dec-08 18:30N 37°55' W 122°27'815.4
2017-Dec-08 18:00N 37°48' W 122°24'0 0.0
2017-Dec-08 17:30N 37°48' W 122°24'816.3
2017-Dec-08 17:01N 37°55' W 122°28'2 3.7
2017-Dec-08 16:31N 37°56' W 122°30'1019.4
2017-Dec-08 16:00N 37°48' W 122°23'1020.5
2017-Dec-08 15:30N 37°57' W 122°30'0 0.1
2017-Dec-08 15:00N 37°57' W 122°31'0 0.0
2017-Dec-08 02:09N 37°57' W 122°30'0 2.3
2017-Dec-08 02:00N 37°56' W 122°30'1020.4
2017-Dec-08 01:30N 37°48' W 122°24'2 4.4
2017-Dec-08 01:01N 37°50' W 122°24'816.6
2017-Dec-08 00:30N 37°57' W 122°30'1020.6
2017-Dec-08 00:00N 37°48' W 122°24'510.7
2017-Dec-07 23:31N 37°53' W 122°26'510.9
2017-Dec-07 23:01N 37°57' W 122°31'0 0.0
2017-Dec-07 22:30N 37°57' W 122°31'0 0.0
2017-Dec-07 21:59N 37°57' W 122°31'0 0.0
2017-Dec-07 21:28N 37°57' W 122°31'0 0.0
2017-Dec-07 20:59N 37°57' W 122°31'0 0.0
2017-Dec-07 20:30N 37°57' W 122°31'0 0.0
2017-Dec-07 19:58N 37°57' W 122°31'0 0.0
2017-Dec-07 19:30N 37°57' W 122°31'0 0.0
2017-Dec-07 18:57N 37°57' W 122°31'0 0.0
2017-Dec-07 18:28N 37°57' W 122°31'0 0.3
2017-Dec-07 18:00N 37°57' W 122°30'1020.8
2017-Dec-07 17:30N 37°48' W 122°23'816.0
2017-Dec-07 17:00N 37°55' W 122°28'1 1.0
2017-Dec-07 16:31N 37°56' W 122°28'816.3
2017-Dec-07 16:01N 37°48' W 122°23'1020.1
2017-Dec-07 15:30N 37°57' W 122°30'0 0.1
2017-Dec-07 15:00N 37°57' W 122°31'0 0.0
2017-Dec-07 14:30N 37°57' W 122°31'0 0.0
2017-Dec-07 14:00N 37°57' W 122°31'0 0.0
2017-Dec-07 13:30N 37°57' W 122°31'0 0.0
2017-Dec-07 13:00N 37°57' W 122°31'0 0.0
2017-Dec-07 12:30N 37°57' W 122°31'0 0.0
2017-Dec-07 12:00N 37°57' W 122°31'0 0.0
2017-Dec-07 11:30N 37°57' W 122°31'0 0.0
2017-Dec-07 10:45N 37°57' W 122°31'0 0.0
2017-Dec-07 10:30N 37°57' W 122°31'0 0.0
2017-Dec-07 09:59N 37°57' W 122°31'0 0.0
2017-Dec-07 09:29N 37°57' W 122°31'0 0.0
2017-Dec-07 09:00N 37°57' W 122°31'0 0.0
2017-Dec-07 08:30N 37°57' W 122°31'0 0.0
2017-Dec-07 07:58N 37°57' W 122°31'0 0.0
2017-Dec-07 07:30N 37°57' W 122°31'0 0.0
2017-Dec-07 07:00N 37°57' W 122°31'0 0.0
2017-Dec-07 06:30N 37°57' W 122°31'0 0.0
2017-Dec-07 06:00N 37°57' W 122°31'0 0.0
2017-Dec-07 05:30N 37°57' W 122°31'0 0.0
2017-Dec-07 05:00N 37°57' W 122°31'0 0.0
2017-Dec-07 04:30N 37°57' W 122°31'0 0.0
2017-Dec-07 04:00N 37°57' W 122°31'0 0.0
2017-Dec-07 03:30N 37°57' W 122°31'0 0.0
2017-Dec-07 03:00N 37°57' W 122°31'0 0.0
2017-Dec-07 02:30N 37°57' W 122°31'0 0.9
2017-Dec-07 02:00N 37°56' W 122°30'1020.4
2017-Dec-07 01:30N 37°48' W 122°24'4 8.9
2017-Dec-07 01:01N 37°52' W 122°25'611.9
2017-Dec-07 00:30N 37°57' W 122°30'1020.6
2017-Dec-07 00:00N 37°48' W 122°24'5 9.7
2017-Dec-06 23:30N 37°52' W 122°25'611.8
2017-Dec-06 23:00N 37°57' W 122°31'0 0.0
2017-Dec-06 22:30N 37°57' W 122°31'0 0.0
2017-Dec-06 22:00N 37°57' W 122°31'0 0.0
2017-Dec-06 21:30N 37°57' W 122°31'0 0.0
2017-Dec-06 20:57N 37°57' W 122°31'  
2017-Dec-02 02:06N 37°57' W 122°30'0 3.5
2017-Dec-02 02:00N 37°56' W 122°30'1020.3
2017-Dec-02 01:30N 37°48' W 122°24'611.0
2017-Dec-02 01:00N 37°53' W 122°26'5 9.8
2017-Dec-02 00:30N 37°57' W 122°30'1020.3
2017-Dec-02 00:00N 37°48' W 122°24'713.6
2017-Dec-01 23:30N 37°54' W 122°27'4 8.0
2017-Dec-01 23:00N 37°57' W 122°31'0 0.0
2017-Dec-01 22:30N 37°57' W 122°31'0 0.0
2017-Dec-01 22:00N 37°57' W 122°31'0 0.0
2017-Dec-01 21:28N 37°57' W 122°31'0 0.0
2017-Dec-01 21:00N 37°57' W 122°31'0 0.0
2017-Dec-01 20:30N 37°57' W 122°31'0 0.0
2017-Dec-01 20:00N 37°57' W 122°31'0 0.0
2017-Dec-01 19:31N 37°57' W 122°31'0 0.0
2017-Dec-01 19:01N 37°57' W 122°31'0 0.0
2017-Dec-01 18:30N 37°57' W 122°31'0 0.0
2017-Dec-01 18:00N 37°57' W 122°31'1020.8
2017-Dec-01 17:30N 37°48' W 122°23'918.5
2017-Dec-01 17:00N 37°56' W 122°29'  
Track history (hours):
 
Tides and Currents Weather Stations Pressure Air Temp Water Temp Dewpoint Dewpoint Depression Visibility Wind Speed Wind Dir Waves Ship Positions

Mendocino

Owner: Golden Gate Bridge Hwy & Transp Dist., Larkspur, CA. More information available from US FCC via Universal Licensing System and Coast Guard Vessel Documentation Center.

Last reported at 2017-Dec-11 17:00 UTC. Time now 2017-Dec-12 18:11 UTC.
Position N 37°55' W 122°27'.

Length 48 m.

Type: Ship. MMSI: 366970020.

Date/timePositionNaut miles runAvg speedWind from/ knotsBaromVisibWave heightAir tempDewpointWater temp
2017-Dec-11 17:00N 37°55' W 122°27'3 5.5
2017-Dec-11 16:30N 37°56' W 122°30'1019.7
2017-Dec-11 16:00N 37°48' W 122°24'1020.9
2017-Dec-11 15:31N 37°57' W 122°30'0 0.1
2017-Dec-11 15:00N 37°57' W 122°31'  
2017-Dec-09 02:06N 37°57' W 122°30'0 3.0
2017-Dec-09 02:00N 37°57' W 122°30'1020.5
2017-Dec-09 01:30N 37°48' W 122°24'510.1
2017-Dec-09 01:01N 37°53' W 122°25'611.3
2017-Dec-09 00:30N 37°57' W 122°30'1021.0
2017-Dec-09 00:00N 37°48' W 122°24'815.9
2017-Dec-08 23:30N 37°55' W 122°28'3 5.5
2017-Dec-08 23:00N 37°57' W 122°30'0 0.0
2017-Dec-08 22:31N 37°57' W 122°30'0 0.0
2017-Dec-08 22:01N 37°57' W 122°30'1020.4
2017-Dec-08 21:30N 37°48' W 122°23'611.3
2017-Dec-08 21:01N 37°53' W 122°26'5 9.3
2017-Dec-08 20:30N 37°57' W 122°30'1020.8
2017-Dec-08 20:00N 37°48' W 122°23'4 8.5
2017-Dec-08 19:31N 37°52' W 122°25'612.6
2017-Dec-08 19:00N 37°57' W 122°30'3 6.5
2017-Dec-08 18:30N 37°55' W 122°27'815.4
2017-Dec-08 18:00N 37°48' W 122°24'0 0.0
2017-Dec-08 17:30N 37°48' W 122°24'816.3
2017-Dec-08 17:01N 37°55' W 122°28'2 3.7
2017-Dec-08 16:31N 37°56' W 122°30'1019.4
2017-Dec-08 16:00N 37°48' W 122°23'1020.5
2017-Dec-08 15:30N 37°57' W 122°30'0 0.1
2017-Dec-08 15:00N 37°57' W 122°31'0 0.0
2017-Dec-08 02:09N 37°57' W 122°30'0 2.3
2017-Dec-08 02:00N 37°56' W 122°30'1020.4
2017-Dec-08 01:30N 37°48' W 122°24'2 4.4
2017-Dec-08 01:01N 37°50' W 122°24'816.6
2017-Dec-08 00:30N 37°57' W 122°30'1020.6
2017-Dec-08 00:00N 37°48' W 122°24'510.7
2017-Dec-07 23:31N 37°53' W 122°26'510.9
2017-Dec-07 23:01N 37°57' W 122°31'0 0.0
2017-Dec-07 22:30N 37°57' W 122°31'0 0.0
2017-Dec-07 21:59N 37°57' W 122°31'0 0.0
2017-Dec-07 21:28N 37°57' W 122°31'0 0.0
2017-Dec-07 20:59N 37°57' W 122°31'0 0.0
2017-Dec-07 20:30N 37°57' W 122°31'0 0.0
2017-Dec-07 19:58N 37°57' W 122°31'0 0.0
2017-Dec-07 19:30N 37°57' W 122°31'0 0.0
2017-Dec-07 18:57N 37°57' W 122°31'0 0.0
2017-Dec-07 18:28N 37°57' W 122°31'0 0.3
2017-Dec-07 18:00N 37°57' W 122°30'1020.8
2017-Dec-07 17:30N 37°48' W 122°23'816.0
2017-Dec-07 17:00N 37°55' W 122°28'1 1.0
2017-Dec-07 16:31N 37°56' W 122°28'816.3
2017-Dec-07 16:01N 37°48' W 122°23'1020.1
2017-Dec-07 15:30N 37°57' W 122°30'0 0.1
2017-Dec-07 15:00N 37°57' W 122°31'0 0.0
2017-Dec-07 14:30N 37°57' W 122°31'0 0.0
2017-Dec-07 14:00N 37°57' W 122°31'0 0.0
2017-Dec-07 13:30N 37°57' W 122°31'0 0.0
2017-Dec-07 13:00N 37°57' W 122°31'0 0.0
2017-Dec-07 12:30N 37°57' W 122°31'0 0.0
2017-Dec-07 12:00N 37°57' W 122°31'0 0.0
2017-Dec-07 11:30N 37°57' W 122°31'0 0.0
2017-Dec-07 10:45N 37°57' W 122°31'0 0.0
2017-Dec-07 10:30N 37°57' W 122°31'0 0.0
2017-Dec-07 09:59N 37°57' W 122°31'0 0.0
2017-Dec-07 09:29N 37°57' W 122°31'0 0.0
2017-Dec-07 09:00N 37°57' W 122°31'0 0.0
2017-Dec-07 08:30N 37°57' W 122°31'0 0.0
2017-Dec-07 07:58N 37°57' W 122°31'0 0.0
2017-Dec-07 07:30N 37°57' W 122°31'0 0.0
2017-Dec-07 07:00N 37°57' W 122°31'0 0.0
2017-Dec-07 06:30N 37°57' W 122°31'0 0.0
2017-Dec-07 06:00N 37°57' W 122°31'0 0.0
2017-Dec-07 05:30N 37°57' W 122°31'0 0.0
2017-Dec-07 05:00N 37°57' W 122°31'0 0.0
2017-Dec-07 04:30N 37°57' W 122°31'0 0.0
2017-Dec-07 04:00N 37°57' W 122°31'0 0.0
2017-Dec-07 03:30N 37°57' W 122°31'0 0.0
2017-Dec-07 03:00N 37°57' W 122°31'0 0.0
2017-Dec-07 02:30N 37°57' W 122°31'0 0.9
2017-Dec-07 02:00N 37°56' W 122°30'1020.4
2017-Dec-07 01:30N 37°48' W 122°24'4 8.9
2017-Dec-07 01:01N 37°52' W 122°25'611.9
2017-Dec-07 00:30N 37°57' W 122°30'1020.6
2017-Dec-07 00:00N 37°48' W 122°24'5 9.7
2017-Dec-06 23:30N 37°52' W 122°25'611.8
2017-Dec-06 23:00N 37°57' W 122°31'0 0.0
2017-Dec-06 22:30N 37°57' W 122°31'0 0.0
2017-Dec-06 22:00N 37°57' W 122°31'0 0.0
2017-Dec-06 21:30N 37°57' W 122°31'0 0.0
2017-Dec-06 20:57N 37°57' W 122°31'  
2017-Dec-02 02:06N 37°57' W 122°30'0 3.5
2017-Dec-02 02:00N 37°56' W 122°30'1020.3
2017-Dec-02 01:30N 37°48' W 122°24'611.0
2017-Dec-02 01:00N 37°53' W 122°26'5 9.8
2017-Dec-02 00:30N 37°57' W 122°30'1020.3
2017-Dec-02 00:00N 37°48' W 122°24'713.6
2017-Dec-01 23:30N 37°54' W 122°27'4 8.0
2017-Dec-01 23:00N 37°57' W 122°31'0 0.0
2017-Dec-01 22:30N 37°57' W 122°31'0 0.0
2017-Dec-01 22:00N 37°57' W 122°31'0 0.0
2017-Dec-01 21:28N 37°57' W 122°31'0 0.0
2017-Dec-01 21:00N 37°57' W 122°31'0 0.0
2017-Dec-01 20:30N 37°57' W 122°31'0 0.0
2017-Dec-01 20:00N 37°57' W 122°31'0 0.0
2017-Dec-01 19:31N 37°57' W 122°31'0 0.0
2017-Dec-01 19:01N 37°57' W 122°31'0 0.0
2017-Dec-01 18:30N 37°57' W 122°31'0 0.0
2017-Dec-01 18:00N 37°57' W 122°31'1020.8
2017-Dec-01 17:30N 37°48' W 122°23'918.5
2017-Dec-01 17:00N 37°56' W 122°29'  

Dump ship's entire track history